sensor_id;sensor_type;location;lat;lon;timestamp;pressure;altitude;pressure_sealevel;temperature;humidity
6528;BME280;3297;42.664;23.256;2022-08-03T00:01:29;50267.03;;;-139.84;55.35
6528;BME280;3297;42.664;23.256;2022-08-03T00:03:55;50319.50;;;-139.84;55.27
6528;BME280;3297;42.664;23.256;2022-08-03T00:06:21;50300.06;;;-139.84;55.44
6528;BME280;3297;42.664;23.256;2022-08-03T00:08:46;50278.69;;;-139.84;55.76
6528;BME280;3297;42.664;23.256;2022-08-03T00:11:12;50311.72;;;-139.84;55.87
6528;BME280;3297;42.664;23.256;2022-08-03T00:13:38;50325.34;;;-139.84;55.60
6528;BME280;3297;42.664;23.256;2022-08-03T00:16:03;50290.34;;;-139.84;55.72
6528;BME280;3297;42.664;23.256;2022-08-03T00:18:29;50323.38;;;-139.84;55.77
6528;BME280;3297;42.664;23.256;2022-08-03T00:20:55;50284.50;;;-139.84;55.68
6528;BME280;3297;42.664;23.256;2022-08-03T00:23:20;50329.22;;;-139.84;55.60
6528;BME280;3297;42.664;23.256;2022-08-03T00:25:46;50303.94;;;-139.84;55.85
6528;BME280;3297;42.664;23.256;2022-08-03T00:28:11;50311.72;;;-139.84;55.91
6528;BME280;3297;42.664;23.256;2022-08-03T00:30:37;50389.47;;;-139.84;55.71
6528;BME280;3297;42.664;23.256;2022-08-03T00:33:02;50307.84;;;-139.84;55.93
6528;BME280;3297;42.664;23.256;2022-08-03T00:35:28;50307.84;;;-139.84;56.28
6528;BME280;3297;42.664;23.256;2022-08-03T00:37:55;50315.63;;;-139.84;56.88
6528;BME280;3297;42.664;23.256;2022-08-03T00:40:20;50307.84;;;-139.84;57.21
6528;BME280;3297;42.664;23.256;2022-08-03T00:42:55;50325.34;;;-139.84;57.37
6528;BME280;3297;42.664;23.256;2022-08-03T00:45:27;50280.63;;;-139.84;56.95
6528;BME280;3297;42.664;23.256;2022-08-03T00:47:53;50303.94;;;-139.84;56.81
6528;BME280;3297;42.664;23.256;2022-08-03T00:50:20;50288.41;;;-139.84;56.89
6528;BME280;3297;42.664;23.256;2022-08-03T00:52:54;50331.16;;;-139.84;57.27
6528;BME280;3297;42.664;23.256;2022-08-03T00:55:21;50296.19;;;-139.84;57.90
6528;BME280;3297;42.664;23.256;2022-08-03T00:57:47;50259.25;;;-139.84;58.84
6528;BME280;3297;42.664;23.256;2022-08-03T01:00:15;50331.16;;;-139.84;58.73
6528;BME280;3297;42.664;23.256;2022-08-03T01:02:41;50311.72;;;-139.84;58.75
6528;BME280;3297;42.664;23.256;2022-08-03T01:05:08;50315.63;;;-139.84;58.32
6528;BME280;3297;42.664;23.256;2022-08-03T01:10:30;50323.38;;;-139.84;58.64
6528;BME280;3297;42.664;23.256;2022-08-03T01:15:45;50300.06;;;-139.84;58.64
6528;BME280;3297;42.664;23.256;2022-08-03T01:18:17;50325.34;;;-139.84;59.28
6528;BME280;3297;42.664;23.256;2022-08-03T01:20:48;50325.34;;;-139.84;59.16
6528;BME280;3297;42.664;23.256;2022-08-03T01:31:44;50315.63;;;-139.84;60.03
6528;BME280;3297;42.664;23.256;2022-08-03T01:34:15;50268.97;;;-139.84;60.93
6528;BME280;3297;42.664;23.256;2022-08-03T01:36:50;50319.50;;;-139.84;61.24
6528;BME280;3297;42.664;23.256;2022-08-03T01:39:18;50303.94;;;-139.84;61.16
6528;BME280;3297;42.664;23.256;2022-08-03T01:41:50;50313.66;;;-139.84;61.63
6528;BME280;3297;42.664;23.256;2022-08-03T01:44:19;50307.84;;;-139.84;61.91
6528;BME280;3297;42.664;23.256;2022-08-03T01:46:47;50296.19;;;-139.84;61.68
6528;BME280;3297;42.664;23.256;2022-08-03T01:49:15;50342.81;;;-139.84;61.69
6528;BME280;3297;42.664;23.256;2022-08-03T01:51:44;50288.41;;;-139.84;61.66
6528;BME280;3297;42.664;23.256;2022-08-03T01:54:10;50296.19;;;-139.84;61.53
6528;BME280;3297;42.664;23.256;2022-08-03T01:56:38;50292.28;;;-139.84;61.37
6528;BME280;3297;42.664;23.256;2022-08-03T01:59:06;50323.38;;;-139.84;61.21
6528;BME280;3297;42.664;23.256;2022-08-03T02:01:34;50323.38;;;-139.84;60.83
6528;BME280;3297;42.664;23.256;2022-08-03T02:04:01;50309.78;;;-139.84;60.73
6528;BME280;3297;42.664;23.256;2022-08-03T02:06:29;50300.06;;;-139.84;60.86
6528;BME280;3297;42.664;23.256;2022-08-03T02:08:57;50311.72;;;-139.84;61.22
6528;BME280;3297;42.664;23.256;2022-08-03T02:11:24;50296.19;;;-139.84;62.16
6528;BME280;3297;42.664;23.256;2022-08-03T02:13:50;50315.63;;;-139.84;61.87
6528;BME280;3297;42.664;23.256;2022-08-03T02:16:17;50319.50;;;-139.84;61.91
6528;BME280;3297;42.664;23.256;2022-08-03T02:18:44;50280.63;;;-139.84;61.58
6528;BME280;3297;42.664;23.256;2022-08-03T02:21:12;50315.63;;;-139.84;61.83
6528;BME280;3297;42.664;23.256;2022-08-03T02:23:39;50335.06;;;-139.84;62.59
6528;BME280;3297;42.664;23.256;2022-08-03T02:26:12;50315.63;;;-139.84;62.35
6528;BME280;3297;42.664;23.256;2022-08-03T02:28:42;50303.94;;;-139.84;62.33
6528;BME280;3297;42.664;23.256;2022-08-03T02:31:15;50265.09;;;-139.84;62.39
6528;BME280;3297;42.664;23.256;2022-08-03T02:33:47;50294.22;;;-139.84;62.52
6528;BME280;3297;42.664;23.256;2022-08-03T02:36:14;50311.72;;;-139.84;62.43
6528;BME280;3297;42.664;23.256;2022-08-03T02:38:42;50327.28;;;-139.84;62.46
6528;BME280;3297;42.664;23.256;2022-08-03T02:41:15;50327.28;;;-139.84;62.50
6528;BME280;3297;42.664;23.256;2022-08-03T02:43:44;50288.41;;;-139.84;62.79
6528;BME280;3297;42.664;23.256;2022-08-03T02:46:13;50340.88;;;-139.84;62.71
6528;BME280;3297;42.664;23.256;2022-08-03T02:48:42;50354.47;;;-139.84;63.74
6528;BME280;3297;42.664;23.256;2022-08-03T02:51:10;50307.84;;;-139.84;63.45
6528;BME280;3297;42.664;23.256;2022-08-03T02:53:37;50278.69;;;-139.84;63.61
6528;BME280;3297;42.664;23.256;2022-08-03T02:56:05;50311.72;;;-139.84;63.45
6528;BME280;3297;42.664;23.256;2022-08-03T02:58:32;50300.06;;;-139.84;63.50
6528;BME280;3297;42.664;23.256;2022-08-03T03:00:59;50327.28;;;-139.84;64.04
6528;BME280;3297;42.664;23.256;2022-08-03T03:03:26;50315.63;;;-139.84;63.89
6528;BME280;3297;42.664;23.256;2022-08-03T03:05:52;50346.72;;;-139.84;64.19
6528;BME280;3297;42.664;23.256;2022-08-03T03:08:19;50338.94;;;-139.84;64.15
6528;BME280;3297;42.664;23.256;2022-08-03T03:10:46;50294.22;;;-139.84;65.54
6528;BME280;3297;42.664;23.256;2022-08-03T03:13:14;50323.38;;;-139.84;64.50
6528;BME280;3297;42.664;23.256;2022-08-03T03:15:41;50315.63;;;-139.84;64.11
6528;BME280;3297;42.664;23.256;2022-08-03T03:18:07;50284.50;;;-139.84;63.84
6528;BME280;3297;42.664;23.256;2022-08-03T03:20:36;50327.28;;;-139.84;63.92
6528;BME280;3297;42.664;23.256;2022-08-03T03:23:04;50325.34;;;-139.84;64.27
6528;BME280;3297;42.664;23.256;2022-08-03T03:25:31;50348.66;;;-139.84;64.64
6528;BME280;3297;42.664;23.256;2022-08-03T03:28:00;50350.59;;;-139.84;64.72
6528;BME280;3297;42.664;23.256;2022-08-03T03:30:28;50352.53;;;-139.84;64.57
6528;BME280;3297;42.664;23.256;2022-08-03T03:32:54;50303.94;;;-139.84;64.45
6528;BME280;3297;42.664;23.256;2022-08-03T03:35:19;50338.94;;;-139.84;64.71
6528;BME280;3297;42.664;23.256;2022-08-03T03:37:45;50315.63;;;-139.84;64.65
6528;BME280;3297;42.664;23.256;2022-08-03T03:40:11;50331.16;;;-139.84;64.69
6528;BME280;3297;42.664;23.256;2022-08-03T03:42:38;50315.63;;;-139.84;64.70
6528;BME280;3297;42.664;23.256;2022-08-03T03:45:05;50331.16;;;-139.84;64.81
6528;BME280;3297;42.664;23.256;2022-08-03T03:47:33;50335.06;;;-139.84;64.81
6528;BME280;3297;42.664;23.256;2022-08-03T03:49:59;50311.72;;;-139.84;65.37
6528;BME280;3297;42.664;23.256;2022-08-03T03:52:24;50311.72;;;-139.84;65.49
6528;BME280;3297;42.664;23.256;2022-08-03T03:54:50;50268.97;;;-139.84;65.54
6528;BME280;3297;42.664;23.256;2022-08-03T03:57:15;50399.19;;;-139.84;65.41
6528;BME280;3297;42.664;23.256;2022-08-03T03:59:41;50329.22;;;-139.84;65.25
6528;BME280;3297;42.664;23.256;2022-08-03T04:02:08;50335.06;;;-139.84;64.96
6528;BME280;3297;42.664;23.256;2022-08-03T04:04:35;50352.53;;;-139.84;64.65
6528;BME280;3297;42.664;23.256;2022-08-03T04:07:20;50364.19;;;-139.84;64.56
6528;BME280;3297;42.664;23.256;2022-08-03T04:10:21;50344.75;;;-139.84;64.27
6528;BME280;3297;42.664;23.256;2022-08-03T04:13:09;50325.34;;;-139.84;64.33
6528;BME280;3297;42.664;23.256;2022-08-03T04:15:40;50317.56;;;-139.84;64.17
6528;BME280;3297;42.664;23.256;2022-08-03T04:18:08;50311.72;;;-139.84;64.18
6528;BME280;3297;42.664;23.256;2022-08-03T04:20:37;50342.81;;;-139.84;64.28
6528;BME280;3297;42.664;23.256;2022-08-03T04:23:05;50377.81;;;-139.84;64.29
6528;BME280;3297;42.664;23.256;2022-08-03T04:25:33;50335.06;;;-139.84;64.27
6528;BME280;3297;42.664;23.256;2022-08-03T04:28:02;50338.94;;;-139.84;64.30
6528;BME280;3297;42.664;23.256;2022-08-03T04:30:30;50331.16;;;-139.84;64.29
6528;BME280;3297;42.664;23.256;2022-08-03T04:32:58;50344.75;;;-139.84;64.68
6528;BME280;3297;42.664;23.256;2022-08-03T04:35:28;50397.25;;;-139.84;64.77
6528;BME280;3297;42.664;23.256;2022-08-03T04:38:00;50346.72;;;-139.84;64.37
6528;BME280;3297;42.664;23.256;2022-08-03T04:40:32;50375.88;;;-139.84;64.41
6528;BME280;3297;42.664;23.256;2022-08-03T04:42:59;50358.38;;;-139.84;63.94
6528;BME280;3297;42.664;23.256;2022-08-03T04:45:26;50335.06;;;-139.84;63.47
6528;BME280;3297;42.664;23.256;2022-08-03T04:47:53;50375.88;;;-139.84;63.19
6528;BME280;3297;42.664;23.256;2022-08-03T04:50:19;50350.59;;;-139.84;63.38
6528;BME280;3297;42.664;23.256;2022-08-03T04:52:47;50338.94;;;-139.84;63.26
6528;BME280;3297;42.664;23.256;2022-08-03T04:55:24;50424.47;;;-139.84;62.91
6528;BME280;3297;42.664;23.256;2022-08-03T04:57:50;50385.59;;;-139.84;62.39
6528;BME280;3297;42.664;23.256;2022-08-03T05:00:16;50354.47;;;-139.84;62.24
6528;BME280;3297;42.664;23.256;2022-08-03T05:02:42;50373.91;;;-139.84;61.83
6528;BME280;3297;42.664;23.256;2022-08-03T05:05:08;50331.16;;;-139.84;61.47
6528;BME280;3297;42.664;23.256;2022-08-03T05:07:33;50350.59;;;-139.84;61.15
6528;BME280;3297;42.664;23.256;2022-08-03T05:09:59;50399.19;;;-139.84;60.38
6528;BME280;3297;42.664;23.256;2022-08-03T05:12:24;50350.59;;;-139.84;60.29
6528;BME280;3297;42.664;23.256;2022-08-03T05:14:50;50389.47;;;-139.84;60.39
6528;BME280;3297;42.664;23.256;2022-08-03T05:17:15;50405.03;;;-139.84;59.94
6528;BME280;3297;42.664;23.256;2022-08-03T05:19:41;50370.03;;;-139.84;59.56
6528;BME280;3297;42.664;23.256;2022-08-03T05:22:06;50366.16;;;-139.84;59.09
6528;BME280;3297;42.664;23.256;2022-08-03T05:24:32;50377.81;;;-139.84;59.26
6528;BME280;3297;42.664;23.256;2022-08-03T05:26:58;50422.50;;;-139.84;59.13
6528;BME280;3297;42.664;23.256;2022-08-03T05:29:23;50401.13;;;-139.84;58.71
6528;BME280;3297;42.664;23.256;2022-08-03T05:31:49;50408.91;;;-139.84;57.81
6528;BME280;3297;42.664;23.256;2022-08-03T05:34:14;50391.41;;;-139.84;57.83
6528;BME280;3297;42.664;23.256;2022-08-03T05:36:40;50401.13;;;-139.84;57.24
6528;BME280;3297;42.664;23.256;2022-08-03T05:39:06;50389.47;;;-139.84;56.74
6528;BME280;3297;42.664;23.256;2022-08-03T05:41:31;50397.25;;;-139.84;56.58
6528;BME280;3297;42.664;23.256;2022-08-03T05:43:57;50368.09;;;-139.84;55.40
6528;BME280;3297;42.664;23.256;2022-08-03T05:46:23;50414.75;;;-139.84;55.45
6528;BME280;3297;42.664;23.256;2022-08-03T05:48:48;50397.25;;;-139.84;55.66
6528;BME280;3297;42.664;23.256;2022-08-03T05:51:14;50385.59;;;-139.84;54.75
6528;BME280;3297;42.664;23.256;2022-08-03T05:53:41;50430.28;;;-139.84;54.96
6528;BME280;3297;42.664;23.256;2022-08-03T05:56:06;50412.78;;;-139.84;54.48
6528;BME280;3297;42.664;23.256;2022-08-03T05:58:32;50428.34;;;-139.84;54.02
6528;BME280;3297;42.664;23.256;2022-08-03T06:00:57;50416.69;;;-139.84;53.26
6528;BME280;3297;42.664;23.256;2022-08-03T06:03:23;50424.47;;;-139.84;51.83
6528;BME280;3297;42.664;23.256;2022-08-03T06:05:50;50408.91;;;-139.84;50.32
6528;BME280;3297;42.664;23.256;2022-08-03T06:08:15;50420.56;;;-139.84;48.82
6528;BME280;3297;42.664;23.256;2022-08-03T06:10:41;50410.84;;;-139.84;48.63
6528;BME280;3297;42.664;23.256;2022-08-03T06:13:06;50424.47;;;-139.84;48.39
6528;BME280;3297;42.664;23.256;2022-08-03T06:15:32;50455.56;;;-139.84;47.43
6528;BME280;3297;42.664;23.256;2022-08-03T06:17:59;50434.19;;;-139.84;46.70
6528;BME280;3297;42.664;23.256;2022-08-03T06:20:25;50424.47;;;-139.84;45.95
6528;BME280;3297;42.664;23.256;2022-08-03T06:22:50;50434.19;;;-139.84;44.12
6528;BME280;3297;42.664;23.256;2022-08-03T06:25:16;50451.66;;;-139.84;43.74
6528;BME280;3297;42.664;23.256;2022-08-03T06:27:43;50428.34;;;-139.84;43.09
6528;BME280;3297;42.664;23.256;2022-08-03T06:30:10;50478.88;;;-139.84;42.77
6528;BME280;3297;42.664;23.256;2022-08-03T06:32:37;50475.00;;;-139.84;42.22
6528;BME280;3297;42.664;23.256;2022-08-03T06:35:05;50494.44;;;-139.84;41.25
6528;BME280;3297;42.664;23.256;2022-08-03T06:37:43;50492.47;;;-139.84;40.14
6528;BME280;3297;42.664;23.256;2022-08-03T06:40:17;50467.22;;;-139.84;39.03
6528;BME280;3297;42.664;23.256;2022-08-03T06:42:44;50478.88;;;-139.84;38.30
6528;BME280;3297;42.664;23.256;2022-08-03T06:45:10;50451.66;;;-139.84;37.78
6528;BME280;3297;42.664;23.256;2022-08-03T06:47:37;50482.78;;;-139.84;37.14
6528;BME280;3297;42.664;23.256;2022-08-03T06:50:04;50502.19;;;-139.84;36.91
6528;BME280;3297;42.664;23.256;2022-08-03T06:52:30;50478.88;;;-139.84;36.90
6528;BME280;3297;42.664;23.256;2022-08-03T06:54:56;50486.66;;;-139.84;35.96
6528;BME280;3297;42.664;23.256;2022-08-03T06:57:22;50473.03;;;-139.84;35.89
6528;BME280;3297;42.664;23.256;2022-08-03T06:59:48;50482.78;;;-139.84;35.63
6528;BME280;3297;42.664;23.256;2022-08-03T07:02:14;50480.81;;;-139.84;35.64
6528;BME280;3297;42.664;23.256;2022-08-03T07:04:39;50475.00;;;-139.84;35.38
6528;BME280;3297;42.664;23.256;2022-08-03T07:07:05;50432.22;;;-139.84;35.08
6528;BME280;3297;42.664;23.256;2022-08-03T07:09:30;50465.28;;;-139.84;34.80
6528;BME280;3297;42.664;23.256;2022-08-03T07:11:56;50494.44;;;-139.84;34.48
6528;BME280;3297;42.664;23.256;2022-08-03T07:14:23;50459.44;;;-139.84;34.17
6528;BME280;3297;42.664;23.256;2022-08-03T07:16:48;50482.78;;;-139.84;33.99
6528;BME280;3297;42.664;23.256;2022-08-03T07:19:14;50471.09;;;-139.84;33.57
6528;BME280;3297;42.664;23.256;2022-08-03T07:21:40;50502.19;;;-139.84;34.04
6528;BME280;3297;42.664;23.256;2022-08-03T07:24:05;50461.38;;;-139.84;33.00
6528;BME280;3297;42.664;23.256;2022-08-03T07:26:31;50486.66;;;-139.84;32.85
6528;BME280;3297;42.664;23.256;2022-08-03T07:28:56;50475.00;;;-139.84;32.00
6528;BME280;3297;42.664;23.256;2022-08-03T07:31:22;50484.72;;;-139.84;32.00
6528;BME280;3297;42.664;23.256;2022-08-03T07:33:47;50494.44;;;-139.84;32.02
6528;BME280;3297;42.664;23.256;2022-08-03T07:36:13;50492.47;;;-139.84;31.99
6528;BME280;3297;42.664;23.256;2022-08-03T07:38:39;50463.34;;;-139.84;32.12
6528;BME280;3297;42.664;23.256;2022-08-03T07:41:04;50461.38;;;-139.84;31.46
6528;BME280;3297;42.664;23.256;2022-08-03T07:43:30;50494.44;;;-139.84;32.17
6528;BME280;3297;42.664;23.256;2022-08-03T07:45:56;50482.78;;;-139.84;31.77
6528;BME280;3297;42.664;23.256;2022-08-03T07:48:21;50521.63;;;-139.84;31.11
6528;BME280;3297;42.664;23.256;2022-08-03T07:50:47;50401.13;;;-139.84;31.19
6528;BME280;3297;42.664;23.256;2022-08-03T07:53:12;50473.03;;;-139.84;31.13
6528;BME280;3297;42.664;23.256;2022-08-03T07:55:38;50492.47;;;-139.84;30.61
6528;BME280;3297;42.664;23.256;2022-08-03T08:00:30;50459.44;;;-139.84;30.28
6528;BME280;3297;42.664;23.256;2022-08-03T08:02:56;50484.72;;;-139.84;29.76
6528;BME280;3297;42.664;23.256;2022-08-03T08:05:21;50490.53;;;-139.84;28.97
6528;BME280;3297;42.664;23.256;2022-08-03T08:07:47;50463.34;;;-139.84;29.75
6528;BME280;3297;42.664;23.256;2022-08-03T08:10:12;50498.31;;;-139.84;29.43
6528;BME280;3297;42.664;23.256;2022-08-03T08:12:38;50482.78;;;-139.84;29.04
6528;BME280;3297;42.664;23.256;2022-08-03T08:15:05;50484.72;;;-139.84;28.76
6528;BME280;3297;42.664;23.256;2022-08-03T08:17:30;50506.09;;;-139.84;29.13
6528;BME280;3297;42.664;23.256;2022-08-03T08:20:05;50461.38;;;-139.84;28.78
6528;BME280;3297;42.664;23.256;2022-08-03T08:22:30;50482.78;;;-139.84;29.54
6528;BME280;3297;42.664;23.256;2022-08-03T08:24:57;50459.44;;;-139.84;29.59
6528;BME280;3297;42.664;23.256;2022-08-03T08:27:23;50461.38;;;-139.84;28.74
6528;BME280;3297;42.664;23.256;2022-08-03T08:29:49;50484.72;;;-139.84;28.86
6528;BME280;3297;42.664;23.256;2022-08-03T08:32:14;50447.78;;;-139.84;27.72
6528;BME280;3297;42.664;23.256;2022-08-03T08:34:41;50465.28;;;-139.84;27.18
6528;BME280;3297;42.664;23.256;2022-08-03T08:37:06;50467.22;;;-139.84;27.97
6528;BME280;3297;42.664;23.256;2022-08-03T08:39:32;50473.03;;;-139.84;28.48
6528;BME280;3297;42.664;23.256;2022-08-03T08:41:57;50445.84;;;-139.84;28.31
6528;BME280;3297;42.664;23.256;2022-08-03T08:44:23;50447.78;;;-139.84;27.83
6528;BME280;3297;42.664;23.256;2022-08-03T08:46:49;50449.72;;;-139.84;28.03
6528;BME280;3297;42.664;23.256;2022-08-03T08:49:22;50463.34;;;-139.84;28.84
6528;BME280;3297;42.664;23.256;2022-08-03T08:51:50;50459.44;;;-139.84;28.54
6528;BME280;3297;42.664;23.256;2022-08-03T08:54:19;50451.66;;;-139.84;28.53
6528;BME280;3297;42.664;23.256;2022-08-03T08:56:47;50455.56;;;-139.84;27.53
6528;BME280;3297;42.664;23.256;2022-08-03T08:59:15;50451.66;;;-139.84;27.50
6528;BME280;3297;42.664;23.256;2022-08-03T09:01:41;50467.22;;;-139.84;27.30
6528;BME280;3297;42.664;23.256;2022-08-03T09:04:07;50449.72;;;-139.84;27.93
6528;BME280;3297;42.664;23.256;2022-08-03T09:06:34;50432.22;;;-139.84;27.35
6528;BME280;3297;42.664;23.256;2022-08-03T09:08:59;50490.53;;;-139.84;27.27
6528;BME280;3297;42.664;23.256;2022-08-03T09:11:25;50430.28;;;-139.84;26.84
6528;BME280;3297;42.664;23.256;2022-08-03T09:13:50;50443.91;;;-139.84;26.41
6528;BME280;3297;42.664;23.256;2022-08-03T09:16:19;50465.28;;;-139.84;26.88
6528;BME280;3297;42.664;23.256;2022-08-03T09:18:51;50494.44;;;-139.84;26.65
6528;BME280;3297;42.664;23.256;2022-08-03T09:21:24;50467.22;;;-139.84;26.65
6528;BME280;3297;42.664;23.256;2022-08-03T09:23:53;50453.59;;;-139.84;26.69
6528;BME280;3297;42.664;23.256;2022-08-03T09:26:26;50451.66;;;-139.84;26.12
6528;BME280;3297;42.664;23.256;2022-08-03T09:29:07;50420.56;;;-139.84;26.16
6528;BME280;3297;42.664;23.256;2022-08-03T09:31:35;50463.34;;;-139.84;25.81
6528;BME280;3297;42.664;23.256;2022-08-03T09:34:12;50475.00;;;-139.84;26.15
6528;BME280;3297;42.664;23.256;2022-08-03T09:36:47;50432.22;;;-139.84;26.33
6528;BME280;3297;42.664;23.256;2022-08-03T09:39:18;50420.56;;;-139.84;26.49
6528;BME280;3297;42.664;23.256;2022-08-03T09:41:47;50430.28;;;-139.84;26.54
6528;BME280;3297;42.664;23.256;2022-08-03T09:44:13;50406.97;;;-139.84;26.50
6528;BME280;3297;42.664;23.256;2022-08-03T09:46:50;50436.13;;;-139.84;26.96
6528;BME280;3297;42.664;23.256;2022-08-03T09:49:17;50447.78;;;-139.84;26.57
6528;BME280;3297;42.664;23.256;2022-08-03T09:51:43;50451.66;;;-139.84;27.14
6528;BME280;3297;42.664;23.256;2022-08-03T09:54:09;50451.66;;;-139.84;27.15
6528;BME280;3297;42.664;23.256;2022-08-03T09:56:45;50451.66;;;-139.84;26.79
6528;BME280;3297;42.664;23.256;2022-08-03T09:59:15;50416.69;;;-139.84;26.23
6528;BME280;3297;42.664;23.256;2022-08-03T10:01:47;50445.84;;;-139.84;26.06
6528;BME280;3297;42.664;23.256;2022-08-03T10:04:14;50463.34;;;-139.84;25.48
6528;BME280;3297;42.664;23.256;2022-08-03T10:07:00;50430.28;;;-139.84;25.82
6528;BME280;3297;42.664;23.256;2022-08-03T10:09:26;50434.19;;;-139.84;25.87
6528;BME280;3297;42.664;23.256;2022-08-03T10:11:52;50443.91;;;-139.84;26.19
6528;BME280;3297;42.664;23.256;2022-08-03T10:14:18;50430.28;;;-139.84;26.12
6528;BME280;3297;42.664;23.256;2022-08-03T10:16:45;50401.13;;;-139.84;25.53
6528;BME280;3297;42.664;23.256;2022-08-03T10:19:11;50457.50;;;-139.84;25.97
6528;BME280;3297;42.664;23.256;2022-08-03T10:21:40;50461.38;;;-139.84;25.30
6528;BME280;3297;42.664;23.256;2022-08-03T10:24:08;50441.94;;;-139.84;25.53
6528;BME280;3297;42.664;23.256;2022-08-03T10:26:37;50476.94;;;-139.84;25.76
6528;BME280;3297;42.664;23.256;2022-08-03T10:29:06;50443.91;;;-139.84;25.92
6528;BME280;3297;42.664;23.256;2022-08-03T10:31:38;50406.97;;;-139.84;26.24
6528;BME280;3297;42.664;23.256;2022-08-03T10:34:10;50451.66;;;-139.84;26.85
6528;BME280;3297;42.664;23.256;2022-08-03T10:36:39;50457.50;;;-139.84;26.83
6528;BME280;3297;42.664;23.256;2022-08-03T10:39:05;50422.50;;;-139.84;26.49
6528;BME280;3297;42.664;23.256;2022-08-03T10:41:35;50432.22;;;-139.84;26.37
6528;BME280;3297;42.664;23.256;2022-08-03T10:44:05;50430.28;;;-139.84;26.23
6528;BME280;3297;42.664;23.256;2022-08-03T10:46:33;50434.19;;;-139.84;26.05
6528;BME280;3297;42.664;23.256;2022-08-03T10:49:00;50455.56;;;-139.84;27.70
6528;BME280;3297;42.664;23.256;2022-08-03T10:51:26;50401.13;;;-139.84;27.19
6528;BME280;3297;42.664;23.256;2022-08-03T10:53:56;50440.00;;;-139.84;27.41
6528;BME280;3297;42.664;23.256;2022-08-03T10:59:15;50408.91;;;-139.84;27.56
6528;BME280;3297;42.664;23.256;2022-08-03T11:04:17;50436.13;;;-139.84;28.22
6528;BME280;3297;42.664;23.256;2022-08-03T11:06:44;50426.41;;;-139.84;28.06
6528;BME280;3297;42.664;23.256;2022-08-03T11:11:36;50436.13;;;-139.84;27.81
6528;BME280;3297;42.664;23.256;2022-08-03T11:16:45;50432.22;;;-139.84;26.15
6528;BME280;3297;42.664;23.256;2022-08-03T11:19:14;50438.06;;;-139.84;26.93
6528;BME280;3297;42.664;23.256;2022-08-03T11:30:21;50418.63;;;-139.84;26.79
6528;BME280;3297;42.664;23.256;2022-08-03T11:32:52;50405.03;;;-139.84;26.33
6528;BME280;3297;42.664;23.256;2022-08-03T11:35:22;50428.34;;;-139.84;26.83
6528;BME280;3297;42.664;23.256;2022-08-03T11:40:46;50416.69;;;-139.84;26.51
6528;BME280;3297;42.664;23.256;2022-08-03T11:46:08;50383.63;;;-139.84;26.82
6528;BME280;3297;42.664;23.256;2022-08-03T11:48:39;50445.84;;;-139.84;26.40
6528;BME280;3297;42.664;23.256;2022-08-03T11:53:45;50420.56;;;-139.84;27.47
6528;BME280;3297;42.664;23.256;2022-08-03T11:56:12;50426.41;;;-139.84;27.00
6528;BME280;3297;42.664;23.256;2022-08-03T11:58:45;50459.44;;;-139.84;27.34
6528;BME280;3297;42.664;23.256;2022-08-03T12:01:12;50389.47;;;-139.84;27.51
6528;BME280;3297;42.664;23.256;2022-08-03T12:03:37;50405.03;;;-139.84;27.62
6528;BME280;3297;42.664;23.256;2022-08-03T12:06:08;50397.25;;;-139.84;27.70
6528;BME280;3297;42.664;23.256;2022-08-03T12:08:34;50406.97;;;-139.84;27.79
6528;BME280;3297;42.664;23.256;2022-08-03T12:11:01;50416.69;;;-139.84;28.17
6528;BME280;3297;42.664;23.256;2022-08-03T12:16:01;50408.91;;;-139.84;28.69
6528;BME280;3297;42.664;23.256;2022-08-03T12:18:27;50428.34;;;-139.84;28.83
6528;BME280;3297;42.664;23.256;2022-08-03T12:21:03;50389.47;;;-139.84;29.38
6528;BME280;3297;42.664;23.256;2022-08-03T12:23:29;50420.56;;;-139.84;29.15
6528;BME280;3297;42.664;23.256;2022-08-03T12:26:00;50443.91;;;-139.84;29.10
6528;BME280;3297;42.664;23.256;2022-08-03T12:28:26;50397.25;;;-139.84;29.31
6528;BME280;3297;42.664;23.256;2022-08-03T12:30:52;50393.34;;;-139.84;28.85
6528;BME280;3297;42.664;23.256;2022-08-03T12:33:25;50426.41;;;-139.84;29.54
6528;BME280;3297;42.664;23.256;2022-08-03T12:36:08;50420.56;;;-139.84;29.28
6528;BME280;3297;42.664;23.256;2022-08-03T12:38:35;50416.69;;;-139.84;29.44
6528;BME280;3297;42.664;23.256;2022-08-03T12:41:07;50405.03;;;-139.84;29.68
6528;BME280;3297;42.664;23.256;2022-08-03T12:43:47;50410.84;;;-139.84;30.01
6528;BME280;3297;42.664;23.256;2022-08-03T12:46:15;50403.06;;;-139.84;30.05
6528;BME280;3297;42.664;23.256;2022-08-03T12:49:10;50401.13;;;-139.84;29.91
6528;BME280;3297;42.664;23.256;2022-08-03T12:54:08;50432.22;;;-139.84;29.77
6528;BME280;3297;42.664;23.256;2022-08-03T12:56:34;50393.34;;;-139.84;30.28
6528;BME280;3297;42.664;23.256;2022-08-03T12:59:23;50397.25;;;-139.84;30.92
6528;BME280;3297;42.664;23.256;2022-08-03T13:01:50;50408.91;;;-139.84;30.50
6528;BME280;3297;42.664;23.256;2022-08-03T13:04:25;50366.16;;;-139.84;30.28
6528;BME280;3297;42.664;23.256;2022-08-03T13:09:26;50420.56;;;-139.84;31.10
6528;BME280;3297;42.664;23.256;2022-08-03T13:12:16;50393.34;;;-139.84;31.17
6528;BME280;3297;42.664;23.256;2022-08-03T13:14:47;50408.91;;;-139.84;31.55
6528;BME280;3297;42.664;23.256;2022-08-03T13:17:13;50362.25;;;-139.84;31.98
6528;BME280;3297;42.664;23.256;2022-08-03T13:19:41;50405.03;;;-139.84;31.92
6528;BME280;3297;42.664;23.256;2022-08-03T13:22:36;50408.91;;;-139.84;30.89
6528;BME280;3297;42.664;23.256;2022-08-03T13:25:02;50397.25;;;-139.84;31.63
6528;BME280;3297;42.664;23.256;2022-08-03T13:27:29;50387.53;;;-139.84;31.66
6528;BME280;3297;42.664;23.256;2022-08-03T13:29:55;50428.34;;;-139.84;32.04
6528;BME280;3297;42.664;23.256;2022-08-03T13:32:22;50393.34;;;-139.84;31.92
6528;BME280;3297;42.664;23.256;2022-08-03T13:34:48;50385.59;;;-139.84;32.00
6528;BME280;3297;42.664;23.256;2022-08-03T13:37:14;50362.25;;;-139.84;32.77
6528;BME280;3297;42.664;23.256;2022-08-03T13:39:40;50383.63;;;-139.84;32.50
6528;BME280;3297;42.664;23.256;2022-08-03T13:42:07;50391.41;;;-139.84;32.48
6528;BME280;3297;42.664;23.256;2022-08-03T13:44:33;50379.75;;;-139.84;32.39
6528;BME280;3297;42.664;23.256;2022-08-03T13:46:58;50424.47;;;-139.84;32.47